Time;durP1;ratioP1;P1;durP2;ratioP2;P2;SDS_P1;SDS_P2;PMS_P1;PMS_P2;Temp;Humidity;BMP_temperature;BMP_pressure;BME280_temperature;BME280_humidity;BME280_pressure;Samples;Min_cycle;Max_cycle;Signal;HPM_P1;HPM_P2
2022/08/27 00:01:25;;;;;;;5.82;3.20;;;14.70;99.90;;;;;;5120725;28;20099;-65
2022/08/27 00:03:54;;;;;;;8.18;3.13;;;14.60;99.90;;;;;;5121775;28;20031;-65
2022/08/27 00:06:21;;;;;;;5.70;3.13;;;14.60;99.90;;;;;;5120661;28;20053;-65
2022/08/27 00:08:47;;;;;;;7.35;3.13;;;14.50;99.90;;;;;;5119725;28;20046;-65
2022/08/27 00:11:16;;;;;;;6.60;3.25;;;14.40;99.90;;;;;;5119150;28;20071;-65
2022/08/27 00:13:41;;;;;;;5.65;3.00;;;14.40;99.90;;;;;;5123885;27;20478;-65
2022/08/27 00:16:09;;;;;;;6.35;3.20;;;14.40;99.90;;;;;;5119186;28;20039;-65
2022/08/27 00:18:35;;;;;;;6.55;2.90;;;14.40;99.90;;;;;;5112435;28;20128;-66
2022/08/27 00:21:02;;;;;;;6.50;3.40;;;14.30;99.90;;;;;;5122769;28;20062;-66
2022/08/27 00:23:28;;;;;;;6.22;2.88;;;14.30;99.90;;;;;;5120854;27;20051;-65
2022/08/27 00:25:54;;;;;;;5.45;3.13;;;14.20;99.90;;;;;;5140813;27;20487;-66
2022/08/27 00:28:20;;;;;;;5.82;3.05;;;14.20;99.90;;;;;;5142576;27;20130;-66
2022/08/27 00:30:45;;;;;;;5.60;3.33;;;14.20;99.90;;;;;;5141103;27;20035;-65
2022/08/27 00:33:11;;;;;;;7.15;3.42;;;14.10;99.90;;;;;;5120358;27;20047;-65
2022/08/27 00:35:37;;;;;;;6.07;3.17;;;14.10;99.90;;;;;;5144298;27;20035;-65
2022/08/27 00:38:05;;;;;;;5.35;3.17;;;14.10;99.90;;;;;;5139791;27;20038;-66
2022/08/27 00:40:32;;;;;;;6.57;3.22;;;14.10;99.90;;;;;;5144278;27;20501;-66
2022/08/27 00:43:02;;;;;;;4.85;3.03;;;14.20;99.90;;;;;;5122500;27;20067;-66
2022/08/27 00:45:30;;;;;;;6.28;3.40;;;14.20;99.90;;;;;;5147060;27;20043;-66
2022/08/27 00:47:57;;;;;;;6.57;3.30;;;14.20;99.90;;;;;;5143118;27;20043;-65
2022/08/27 00:50:39;;;;;;;7.03;3.30;;;14.30;99.90;;;;;;5127152;27;20046;-66
2022/08/27 00:53:10;;;;;;;7.65;2.90;;;14.30;99.90;;;;;;5122211;27;20050;-65
2022/08/27 00:55:40;;;;;;;5.18;2.97;;;14.40;99.90;;;;;;5147849;27;20039;-65
2022/08/27 00:58:20;;;;;;;4.82;2.67;;;14.50;99.90;;;;;;5143790;27;20043;-65
2022/08/27 01:00:46;;;;;;;4.88;2.55;;;14.60;99.90;;;;;;5146164;27;20474;-65
2022/08/27 01:03:13;;;;;;;5.38;3.22;;;14.60;99.90;;;;;;5127352;27;20058;-66
2022/08/27 01:05:40;;;;;;;5.40;2.72;;;14.70;99.90;;;;;;5145813;27;20505;-65
2022/08/27 01:08:14;;;;;;;4.47;2.58;;;14.80;99.90;;;;;;5144240;27;20044;-66
2022/08/27 01:10:40;;;;;;;7.05;2.80;;;14.80;99.90;;;;;;5146376;27;20035;-66
2022/08/27 01:13:13;;;;;;;7.22;2.97;;;14.90;99.90;;;;;;5143713;27;20035;-66
2022/08/27 01:15:40;;;;;;;6.38;3.10;;;14.90;99.90;;;;;;5146504;27;20062;-66
2022/08/27 01:18:07;;;;;;;6.28;3.08;;;14.90;99.90;;;;;;5143287;27;20073;-66
2022/08/27 01:21:14;;;;;;;5.55;3.05;;;14.90;99.90;;;;;;5143908;27;20031;-65
2022/08/27 01:23:49;;;;;;;5.70;2.80;;;14.90;99.90;;;;;;5140327;27;20054;-65
2022/08/27 01:26:15;;;;;;;7.15;2.50;;;14.90;99.90;;;;;;5144555;27;20042;-65
2022/08/27 01:28:42;;;;;;;6.22;3.17;;;14.70;99.90;;;;;;5145731;27;20075;-66
2022/08/27 01:31:11;;;;;;;6.05;2.38;;;14.70;99.90;;;;;;5126840;27;20046;-65
2022/08/27 01:33:37;;;;;;;4.78;2.47;;;14.70;99.90;;;;;;5127794;27;20394;-65
2022/08/27 01:36:04;;;;;;;4.78;2.22;;;14.60;99.90;;;;;;5145875;27;20035;-64
2022/08/27 01:38:30;;;;;;;4.38;2.13;;;14.60;99.90;;;;;;5144388;27;20039;-64
2022/08/27 01:40:56;;;;;;;6.60;2.05;;;14.60;99.90;;;;;;5127294;27;20046;-64
2022/08/27 01:43:22;;;;;;;4.35;1.95;;;14.60;99.90;;;;;;5139870;27;20039;-64
2022/08/27 01:45:49;;;;;;;3.97;2.00;;;14.50;99.90;;;;;;5146071;27;20424;-64
2022/08/27 01:48:17;;;;;;;4.95;1.90;;;14.60;99.90;;;;;;5144789;27;20105;-64
2022/08/27 01:50:43;;;;;;;3.90;1.65;;;14.50;99.90;;;;;;5144533;27;20141;-64
2022/08/27 01:53:12;;;;;;;4.75;1.88;;;14.60;99.90;;;;;;5144931;27;20066;-64
2022/08/27 01:55:41;;;;;;;4.18;1.70;;;14.60;99.90;;;;;;5124861;27;20038;-64
2022/08/27 01:58:07;;;;;;;3.75;1.40;;;14.70;99.90;;;;;;5144656;27;20039;-64
2022/08/27 02:00:37;;;;;;;3.42;1.95;;;14.70;99.90;;;;;;5145090;27;20045;-64
2022/08/27 02:03:04;;;;;;;4.25;1.65;;;14.80;99.90;;;;;;5140745;27;20031;-64
2022/08/27 02:05:30;;;;;;;3.95;1.63;;;14.90;99.90;;;;;;5142583;27;20049;-64
2022/08/27 02:07:56;;;;;;;3.53;1.48;;;14.90;99.90;;;;;;5143173;27;20039;-64
2022/08/27 02:10:29;;;;;;;2.50;1.45;;;15.00;99.90;;;;;;5145764;27;20087;-64
2022/08/27 02:12:54;;;;;;;3.20;1.50;;;15.10;99.90;;;;;;5124481;27;20057;-64
2022/08/27 02:15:21;;;;;;;4.72;1.38;;;15.10;99.90;;;;;;5145887;27;20393;-64
2022/08/27 02:17:47;;;;;;;3.35;1.27;;;15.10;99.90;;;;;;5128129;27;20169;-64
2022/08/27 02:20:13;;;;;;;3.63;1.60;;;15.20;99.90;;;;;;5143083;27;20027;-64
2022/08/27 02:22:40;;;;;;;4.22;1.52;;;15.20;99.90;;;;;;5144705;27;20054;-64
2022/08/27 02:25:08;;;;;;;7.32;1.70;;;15.20;99.90;;;;;;5143168;27;20121;-65
2022/08/27 02:27:35;;;;;;;3.33;1.70;;;15.20;99.90;;;;;;5144575;27;20055;-64
2022/08/27 02:30:01;;;;;;;4.07;1.55;;;15.30;99.90;;;;;;5143105;27;20031;-64
2022/08/27 02:32:27;;;;;;;7.03;2.10;;;15.30;99.90;;;;;;5142215;27;20573;-64
2022/08/27 02:34:53;;;;;;;5.80;1.67;;;15.30;99.90;;;;;;5141998;27;20039;-64
2022/08/27 02:37:19;;;;;;;4.93;1.67;;;15.30;99.90;;;;;;5142307;27;20092;-64
2022/08/27 02:39:45;;;;;;;5.25;1.65;;;15.40;99.90;;;;;;5127564;27;20046;-64
2022/08/27 02:42:10;;;;;;;2.90;1.45;;;15.30;99.90;;;;;;5142133;27;20049;-64
2022/08/27 02:44:36;;;;;;;2.72;1.35;;;15.40;99.90;;;;;;5144418;27;20031;-65
2022/08/27 02:47:03;;;;;;;4.05;1.38;;;15.30;99.90;;;;;;5124602;27;20039;-64
2022/08/27 02:49:29;;;;;;;2.90;1.33;;;15.30;99.90;;;;;;5141761;27;20100;-64
2022/08/27 02:51:56;;;;;;;4.80;1.77;;;15.20;99.90;;;;;;5142884;27;20126;-64
2022/08/27 02:54:25;;;;;;;3.65;1.70;;;15.20;99.90;;;;;;5124669;27;20066;-65
2022/08/27 02:56:52;;;;;;;2.95;1.35;;;15.10;99.90;;;;;;5143771;27;20052;-64
2022/08/27 02:59:19;;;;;;;4.25;1.55;;;15.00;99.90;;;;;;5123668;27;20039;-64
2022/08/27 03:01:44;;;;;;;2.88;1.55;;;15.00;99.90;;;;;;5145193;27;20039;-64
2022/08/27 03:04:10;;;;;;;4.85;1.65;;;14.70;99.90;;;;;;5141426;27;20126;-64
2022/08/27 03:06:36;;;;;;;3.65;1.40;;;14.70;99.90;;;;;;5122566;27;20078;-64
2022/08/27 03:09:02;;;;;;;5.25;1.67;;;14.60;99.90;;;;;;5125847;27;20046;-64
2022/08/27 03:11:28;;;;;;;6.35;2.35;;;14.60;99.90;;;;;;5142285;27;20039;-64
2022/08/27 03:13:54;;;;;;;3.35;1.40;;;14.50;99.90;;;;;;5142973;27;20118;-64
2022/08/27 03:16:20;;;;;;;4.45;1.40;;;14.40;99.90;;;;;;5143809;27;20424;-65
2022/08/27 03:18:46;;;;;;;4.38;1.60;;;14.40;99.90;;;;;;5136812;27;20039;-65
2022/08/27 03:21:20;;;;;;;4.68;1.50;;;14.30;99.90;;;;;;5133017;27;20047;-64
2022/08/27 03:23:47;;;;;;;3.97;1.55;;;14.30;99.90;;;;;;5143658;27;20043;-66
2022/08/27 03:26:14;;;;;;;3.67;1.45;;;14.30;99.90;;;;;;5140939;27;20058;-65
2022/08/27 03:28:39;;;;;;;3.20;1.50;;;14.20;99.90;;;;;;5144387;27;20047;-65
2022/08/27 03:31:12;;;;;;;3.35;1.20;;;14.10;99.90;;;;;;5141453;27;20383;-65
2022/08/27 03:33:38;;;;;;;5.57;1.63;;;14.10;99.90;;;;;;5118879;27;20047;-65
2022/08/27 03:36:06;;;;;;;3.20;1.60;;;14.10;99.90;;;;;;5144974;27;20039;-65
2022/08/27 03:38:32;;;;;;;3.03;1.35;;;14.10;99.90;;;;;;5122818;27;20043;-64
2022/08/27 03:40:58;;;;;;;5.45;1.70;;;14.10;99.90;;;;;;5119832;27;20517;-64
2022/08/27 03:43:24;;;;;;;3.63;1.90;;;14.00;99.90;;;;;;5143307;27;20043;-65
2022/08/27 03:45:51;;;;;;;3.38;1.40;;;14.10;99.90;;;;;;5123693;27;20039;-64
2022/08/27 03:48:17;;;;;;;4.57;1.70;;;14.00;99.90;;;;;;5137578;27;20047;-64
2022/08/27 03:50:45;;;;;;;2.83;1.30;;;14.00;99.90;;;;;;5143574;27;20099;-64
2022/08/27 03:53:12;;;;;;;5.93;1.73;;;14.00;99.90;;;;;;5141531;27;20487;-65
2022/08/27 03:55:39;;;;;;;4.32;1.77;;;13.90;99.90;;;;;;5124532;27;20039;-64
2022/08/27 03:58:05;;;;;;;3.92;1.48;;;13.90;99.90;;;;;;5141291;27;20127;-64
2022/08/27 04:00:30;;;;;;;4.80;1.80;;;13.90;99.90;;;;;;5144700;27;20122;-64
2022/08/27 04:02:56;;;;;;;4.55;1.60;;;13.90;99.90;;;;;;5138941;27;20098;-65
2022/08/27 04:05:22;;;;;;;4.10;1.70;;;13.90;99.90;;;;;;5141678;27;20088;-65
2022/08/27 04:07:48;;;;;;;4.30;1.55;;;14.00;99.90;;;;;;5123936;27;20504;-64
2022/08/27 04:10:15;;;;;;;4.97;1.52;;;14.10;99.90;;;;;;5142448;27;20046;-64
2022/08/27 04:12:40;;;;;;;5.45;1.60;;;14.20;99.90;;;;;;5142325;27;20125;-64
2022/08/27 04:15:08;;;;;;;5.93;1.80;;;14.20;99.90;;;;;;5124325;27;20117;-64
2022/08/27 04:17:33;;;;;;;6.40;1.60;;;14.30;99.90;;;;;;5140876;27;20039;-64
2022/08/27 04:19:59;;;;;;;3.83;1.45;;;14.30;99.90;;;;;;5148049;27;20041;-65
2022/08/27 04:22:25;;;;;;;3.20;1.60;;;14.40;99.90;;;;;;5121688;27;20470;-64
2022/08/27 04:24:51;;;;;;;3.92;1.65;;;14.50;99.90;;;;;;5147422;27;20053;-65
2022/08/27 04:27:17;;;;;;;3.83;1.55;;;14.50;99.90;;;;;;5145695;27;20038;-64
2022/08/27 04:29:43;;;;;;;5.13;1.80;;;14.60;99.90;;;;;;5127695;27;20054;-65
2022/08/27 04:32:10;;;;;;;3.50;1.65;;;14.70;99.90;;;;;;5147198;27;20440;-64
2022/08/27 04:34:35;;;;;;;5.07;1.83;;;14.70;99.90;;;;;;5146724;27;20033;-65
2022/08/27 04:37:02;;;;;;;5.47;1.33;;;14.90;99.90;;;;;;5144574;27;20031;-65
2022/08/27 04:39:29;;;;;;;2.92;1.30;;;14.80;99.90;;;;;;5147565;27;20670;-65
2022/08/27 04:41:57;;;;;;;6.00;1.65;;;14.90;99.90;;;;;;5125884;27;20043;-65
2022/08/27 04:44:24;;;;;;;5.35;1.67;;;14.90;99.90;;;;;;5120863;27;20414;-64
2022/08/27 04:46:55;;;;;;;4.25;1.73;;;15.00;99.90;;;;;;5131404;27;20042;-65
2022/08/27 04:49:20;;;;;;;3.30;1.70;;;15.10;99.90;;;;;;5140264;27;20071;-65
2022/08/27 04:51:46;;;;;;;5.82;1.60;;;15.10;99.90;;;;;;5146858;27;20070;-65
2022/08/27 04:54:12;;;;;;;3.45;1.45;;;15.20;99.90;;;;;;5144600;27;20035;-65
2022/08/27 04:56:38;;;;;;;3.80;1.60;;;15.20;99.90;;;;;;5146165;27;20140;-65
2022/08/27 04:59:07;;;;;;;4.15;1.98;;;15.40;99.90;;;;;;5145592;27;20461;-65
2022/08/27 05:01:33;;;;;;;5.07;1.98;;;15.30;99.90;;;;;;5125407;27;20046;-65
2022/08/27 05:03:58;;;;;;;4.32;1.58;;;15.40;99.90;;;;;;5143861;27;20494;-65
2022/08/27 05:06:25;;;;;;;4.28;1.90;;;15.50;99.90;;;;;;5147150;27;20150;-65
2022/08/27 05:08:51;;;;;;;4.70;1.90;;;15.60;99.90;;;;;;5124816;27;20525;-65
2022/08/27 05:11:19;;;;;;;6.68;2.03;;;15.60;99.90;;;;;;5146939;27;20443;-65
2022/08/27 05:13:45;;;;;;;6.40;2.10;;;15.70;99.90;;;;;;5144226;27;20047;-65
2022/08/27 05:16:14;;;;;;;4.93;2.13;;;15.70;99.90;;;;;;5128107;27;20462;-65
2022/08/27 05:18:41;;;;;;;5.18;2.30;;;15.70;99.90;;;;;;5143429;27;20862;-65
2022/08/27 05:21:07;;;;;;;6.30;2.67;;;15.70;99.90;;;;;;5146210;27;20050;-65
2022/08/27 05:23:35;;;;;;;4.43;2.25;;;15.80;99.90;;;;;;5145028;27;20474;-65
2022/08/27 05:26:01;;;;;;;4.30;1.85;;;15.80;99.90;;;;;;5144098;27;20493;-65
2022/08/27 05:28:27;;;;;;;6.15;2.13;;;15.80;99.90;;;;;;5145972;27;20521;-65
2022/08/27 05:31:01;;;;;;;4.72;1.80;;;15.70;99.90;;;;;;5143056;27;20031;-65
2022/08/27 05:33:29;;;;;;;3.70;1.80;;;15.70;99.90;;;;;;5123435;27;20043;-65
2022/08/27 05:35:56;;;;;;;5.65;2.00;;;15.70;99.90;;;;;;5127206;27;20199;-65
2022/08/27 05:38:25;;;;;;;3.55;1.50;;;15.80;99.90;;;;;;5125918;27;20375;-65
2022/08/27 05:41:05;;;;;;;6.43;2.03;;;15.90;99.90;;;;;;5145322;27;20159;-65
2022/08/27 05:43:31;;;;;;;5.78;2.30;;;16.00;99.90;;;;;;5126969;27;20047;-65
2022/08/27 05:45:57;;;;;;;3.67;1.83;;;16.10;99.90;;;;;;5126195;27;20042;-65
2022/08/27 05:48:23;;;;;;;3.53;1.52;;;16.20;99.90;;;;;;5139327;27;20046;-65
2022/08/27 05:50:48;;;;;;;5.55;1.80;;;16.30;99.90;;;;;;5146307;27;20083;-65
2022/08/27 05:53:14;;;;;;;6.57;1.80;;;16.40;99.90;;;;;;5141664;27;20035;-65
2022/08/27 05:55:42;;;;;;;4.10;1.63;;;16.40;99.90;;;;;;5128502;27;20038;-65
2022/08/27 06:01:03;;;;;;;7.15;1.80;;;16.50;99.90;;;;;;5124227;27;20051;-65
2022/08/27 06:01:03;;;;;;;6.63;2.03;;;16.60;99.90;;;;;;5141671;27;20051;-66
2022/08/27 06:03:34;;;;;;;7.35;1.92;;;16.60;99.90;;;;;;5144506;27;20042;-66
2022/08/27 06:06:04;;;;;;;5.03;1.80;;;16.60;99.90;;;;;;5141897;27;20123;-66
2022/08/27 06:08:30;;;;;;;5.57;1.58;;;16.60;99.90;;;;;;5124262;27;20099;-66
2022/08/27 06:10:56;;;;;;;5.80;1.80;;;16.70;99.90;;;;;;5144745;27;20043;-65
2022/08/27 06:13:22;;;;;;;5.65;1.88;;;16.70;99.90;;;;;;5125682;27;20375;-66
2022/08/27 06:15:48;;;;;;;4.38;1.50;;;16.70;99.90;;;;;;5124634;27;20050;-65
2022/08/27 06:18:14;;;;;;;6.43;1.75;;;16.70;99.90;;;;;;5145038;27;20083;-66
2022/08/27 06:20:39;;;;;;;5.43;1.95;;;16.80;99.90;;;;;;5142831;27;20035;-66
2022/08/27 06:23:05;;;;;;;4.50;1.63;;;16.80;99.90;;;;;;5126776;27;20042;-67
2022/08/27 06:25:31;;;;;;;5.90;1.88;;;16.90;99.90;;;;;;5142611;27;20043;-66
2022/08/27 06:27:57;;;;;;;4.72;1.42;;;16.90;99.90;;;;;;5145165;27;20131;-66
2022/08/27 06:30:24;;;;;;;4.63;1.50;;;17.00;99.90;;;;;;5142624;27;20039;-68
2022/08/27 06:32:50;;;;;;;5.07;1.30;;;17.00;99.90;;;;;;5137674;27;20502;-67
2022/08/27 06:35:17;;;;;;;6.60;1.30;;;17.10;99.90;;;;;;5143527;27;20058;-66
2022/08/27 06:37:43;;;;;;;5.38;1.52;;;17.10;99.90;;;;;;5128480;27;20115;-66
2022/08/27 06:40:09;;;;;;;4.55;1.60;;;17.20;99.90;;;;;;5142517;27;20495;-66
2022/08/27 06:42:36;;;;;;;4.60;1.23;;;17.20;99.90;;;;;;5140891;27;20071;-66
2022/08/27 06:45:01;;;;;;;3.47;1.30;;;17.30;99.90;;;;;;5126650;27;20051;-66
2022/08/27 06:47:30;;;;;;;4.03;1.50;;;17.40;99.90;;;;;;5142645;27;20038;-66
2022/08/27 06:49:57;;;;;;;5.32;1.30;;;17.40;99.90;;;;;;5141855;27;20095;-66
2022/08/27 06:52:23;;;;;;;4.85;1.88;;;17.50;99.90;;;;;;5123121;27;20452;-66
2022/08/27 06:54:49;;;;;;;5.32;1.90;;;17.50;99.90;;;;;;5144285;27;20050;-66
2022/08/27 06:57:15;;;;;;;4.15;1.33;;;17.50;99.90;;;;;;5142121;27;20532;-66
2022/08/27 06:59:42;;;;;;;5.70;1.63;;;17.50;99.90;;;;;;5125975;27;20102;-66
2022/08/27 07:02:07;;;;;;;5.22;1.48;;;17.60;99.90;;;;;;5142216;27;20035;-66
2022/08/27 07:04:33;;;;;;;5.65;1.77;;;17.60;99.90;;;;;;5122611;27;20045;-67
2022/08/27 07:07:01;;;;;;;5.55;1.50;;;17.60;99.90;;;;;;5136460;27;20043;-67
2022/08/27 07:09:26;;;;;;;4.95;1.65;;;17.60;99.90;;;;;;5121658;27;20047;-68
2022/08/27 07:11:52;;;;;;;7.05;1.52;;;17.60;99.90;;;;;;5134943;27;20027;-66
2022/08/27 07:14:17;;;;;;;4.72;1.60;;;17.70;99.90;;;;;;5125820;27;20039;-68
2022/08/27 07:16:43;;;;;;;4.50;1.50;;;17.70;99.90;;;;;;5139224;27;20063;-69
2022/08/27 07:19:10;;;;;;;6.07;1.83;;;17.80;99.90;;;;;;5124171;27;20401;-68
2022/08/27 07:21:37;;;;;;;4.63;1.63;;;17.80;99.90;;;;;;5143694;27;20046;-69
2022/08/27 07:24:04;;;;;;;6.75;1.80;;;18.20;99.90;;;;;;5123375;27;20053;-70
2022/08/27 07:26:32;;;;;;;4.85;1.40;;;19.10;99.90;;;;;;5122998;27;20103;-69
2022/08/27 07:28:58;;;;;;;3.00;1.15;;;20.60;99.90;;;;;;5144551;27;20117;-68
2022/08/27 07:31:23;;;;;;;4.35;1.30;;;22.00;99.90;;;;;;5135568;27;20157;-70
2022/08/27 07:33:50;;;;;;;5.00;1.45;;;23.10;99.90;;;;;;5124261;27;20505;-70
2022/08/27 07:36:16;;;;;;;4.18;1.38;;;24.00;98.40;;;;;;5139821;27;20042;-70
2022/08/27 07:38:41;;;;;;;4.28;1.23;;;24.80;96.50;;;;;;5115419;27;20050;-71
2022/08/27 07:41:10;;;;;;;6.32;1.45;;;25.60;96.30;;;;;;5137450;27;20042;-69
2022/08/27 07:46:22;;;;;;;4.13;1.10;;;26.50;92.50;;;;;;5116217;27;20047;-69
2022/08/27 07:48:49;;;;;;;3.10;1.02;;;27.10;90.00;;;;;;5121136;27;20063;-70
2022/08/27 07:51:17;;;;;;;4.47;1.10;;;27.50;91.80;;;;;;5145849;27;20043;-68
2022/08/27 07:53:44;;;;;;;3.80;1.25;;;28.10;91.10;;;;;;5137959;27;20031;-70
2022/08/27 07:56:10;;;;;;;2.83;0.88;;;28.30;89.30;;;;;;5117588;27;20497;-70
2022/08/27 07:58:37;;;;;;;3.85;1.30;;;28.50;87.60;;;;;;5124446;27;20031;-70
2022/08/27 08:01:03;;;;;;;4.25;1.27;;;29.10;88.30;;;;;;5114442;28;20128;-71
2022/08/27 08:03:28;;;;;;;3.97;1.10;;;29.00;88.40;;;;;;5123001;27;20168;-70
2022/08/27 08:05:56;;;;;;;3.08;1.20;;;29.10;86.90;;;;;;5142193;27;20050;-69
2022/08/27 08:08:22;;;;;;;5.22;1.40;;;28.80;86.70;;;;;;5119920;27;20043;-69
2022/08/27 08:10:49;;;;;;;3.00;1.00;;;27.70;84.90;;;;;;5140416;27;20046;-68
2022/08/27 08:13:17;;;;;;;3.95;0.98;;;26.70;88.90;;;;;;5134436;27;20042;-69
2022/08/27 08:15:45;;;;;;;3.65;0.98;;;25.70;90.10;;;;;;5106906;28;20043;-69
2022/08/27 08:18:11;;;;;;;3.05;1.23;;;24.80;91.20;;;;;;5131576;27;20066;-69
2022/08/27 08:20:37;;;;;;;2.60;1.17;;;24.20;92.20;;;;;;5128106;27;20045;-68
2022/08/27 08:23:03;;;;;;;3.42;1.20;;;24.70;93.40;;;;;;5117799;27;20121;-69
2022/08/27 08:25:29;;;;;;;2.25;0.90;;;25.90;92.30;;;;;;5132399;27;20043;-70
2022/08/27 08:27:54;;;;;;;3.22;1.00;;;26.50;91.50;;;;;;5132997;27;20443;-71
2022/08/27 08:30:21;;;;;;;3.90;1.30;;;26.50;90.70;;;;;;5119326;27;20039;-70
2022/08/27 08:32:47;;;;;;;3.30;1.20;;;25.90;90.60;;;;;;5123905;27;20035;-69
2022/08/27 08:35:13;;;;;;;2.38;0.90;;;25.20;91.00;;;;;;5116058;28;20171;-70
2022/08/27 08:37:42;;;;;;;4.25;1.08;;;24.80;92.10;;;;;;5133338;27;20043;-69
2022/08/27 08:40:08;;;;;;;2.90;1.00;;;24.40;92.40;;;;;;5118098;27;20044;-68
2022/08/27 08:42:50;;;;;;;6.93;1.20;;;24.50;93.00;;;;;;5118835;28;20411;-69
2022/08/27 08:45:23;;;;;;;3.00;0.90;;;24.50;92.30;;;;;;5120224;28;20047;-68
2022/08/27 08:48:11;;;;;;;3.53;1.10;;;24.80;92.10;;;;;;5138951;27;20050;-69
2022/08/27 08:50:43;;;;;;;3.90;1.20;;;24.70;91.80;;;;;;5138687;27;20042;-68
2022/08/27 08:53:36;;;;;;;3.25;0.90;;;24.20;92.40;;;;;;5113426;27;20055;-69
2022/08/27 08:56:08;;;;;;;6.88;1.35;;;23.60;92.60;;;;;;5116734;28;20061;-68
2022/08/27 08:58:46;;;;;;;2.92;0.80;;;23.50;93.10;;;;;;5121676;27;20039;-78
2022/08/27 09:01:17;;;;;;;3.35;0.88;;;24.30;92.40;;;;;;5112753;27;20047;-69
2022/08/27 09:03:53;;;;;;;3.65;0.90;;;24.80;91.70;;;;;;5117683;27;20061;-70
2022/08/27 09:06:40;;;;;;;2.97;1.00;;;25.80;91.20;;;;;;5143062;27;20509;-70
2022/08/27 09:09:21;;;;;;;3.75;1.08;;;26.90;90.10;;;;;;5125180;27;20054;-70
2022/08/27 09:12:09;;;;;;;4.13;1.10;;;27.50;88.30;;;;;;5120222;27;20133;-71
2022/08/27 09:14:49;;;;;;;3.95;1.20;;;28.40;87.80;;;;;;5125090;27;20062;-70
2022/08/27 09:17:15;;;;;;;7.88;1.13;;;28.90;87.40;;;;;;5136932;27;20062;-70
2022/08/27 09:19:41;;;;;;;3.35;1.05;;;29.40;86.50;;;;;;5125561;27;20035;-71
2022/08/27 09:22:16;;;;;;;2.13;0.90;;;29.80;85.90;;;;;;5126401;27;20042;-70
2022/08/27 09:25:04;;;;;;;3.65;1.02;;;30.00;82.40;;;;;;5123267;27;20565;-69
2022/08/27 09:27:32;;;;;;;3.72;1.20;;;29.50;82.30;;;;;;5125658;27;20050;-68
2022/08/27 09:30:03;;;;;;;4.88;0.98;;;28.60;85.70;;;;;;5124131;27;20043;-68
2022/08/27 09:32:33;;;;;;;6.55;1.40;;;28.60;87.00;;;;;;5122998;27;20062;-67
2022/08/27 09:35:03;;;;;;;4.63;1.13;;;28.60;85.30;;;;;;5124982;27;20042;-69
2022/08/27 09:37:32;;;;;;;7.53;1.20;;;28.40;84.80;;;;;;5143045;27;20478;-70
2022/08/27 09:40:39;;;;;;;3.28;1.05;;;27.50;85.70;;;;;;5126566;27;20486;-69
2022/08/27 09:43:20;;;;;;;;;;;26.80;86.80;;;;;;5126330;27;20240;-70
2022/08/27 09:45:53;;;;;;;3.03;0.90;;;26.60;87.20;;;;;;5120955;27;20390;-69
2022/08/27 09:48:27;;;;;;;4.15;1.08;;;26.00;87.70;;;;;;5126016;27;20126;-68
2022/08/27 09:50:57;;;;;;;3.53;1.13;;;25.70;88.80;;;;;;5121508;27;20122;-68
2022/08/27 09:53:43;;;;;;;6.63;1.20;;;25.60;88.90;;;;;;5123463;27;20047;-68
2022/08/27 09:56:32;;;;;;;2.55;0.90;;;26.00;90.10;;;;;;5120800;27;20046;-69
2022/08/27 09:59:09;;;;;;;5.50;1.00;;;26.50;89.20;;;;;;5125303;27;20138;-70
2022/08/27 10:01:48;;;;;;;4.10;1.17;;;26.30;88.20;;;;;;5135716;27;20233;-71
2022/08/27 10:04:15;;;;;;;5.03;1.67;;;25.70;88.70;;;;;;5120062;27;20042;-71
2022/08/27 10:06:47;;;;;;;5.20;1.10;;;25.40;90.20;;;;;;5138234;27;20043;-70
2022/08/27 10:09:27;;;;;;;3.22;0.90;;;25.00;89.90;;;;;;5122664;27;20429;-70
2022/08/27 10:12:16;;;;;;;5.50;1.10;;;24.80;90.10;;;;;;5123032;27;20050;-70
2022/08/27 10:14:47;;;;;;;5.35;1.10;;;24.30;91.00;;;;;;5137076;27;20050;-68
2022/08/27 10:17:24;;;;;;;3.25;0.95;;;24.40;91.50;;;;;;5122865;27;20447;-69
2022/08/27 10:20:22;;;;;;;2.72;1.00;;;24.20;91.40;;;;;;5138967;27;20054;-68
2022/08/27 10:23:09;;;;;;;4.53;1.00;;;24.00;91.70;;;;;;5124456;27;20038;-67
2022/08/27 10:26:11;;;;;;;4.85;1.30;;;23.90;92.50;;;;;;5123021;27;20485;-67
2022/08/27 10:28:52;;;;;;;3.22;0.82;;;24.20;92.80;;;;;;5140173;27;20127;-75
2022/08/27 10:31:31;;;;;;;5.18;1.10;;;24.40;92.20;;;;;;5122730;27;20119;-66
2022/08/27 10:34:10;;;;;;;5.28;1.00;;;24.20;91.60;;;;;;5135798;27;20039;-70
2022/08/27 10:37:07;;;;;;;6.40;1.00;;;23.90;92.10;;;;;;5123183;27;20809;-71
2022/08/27 10:39:45;;;;;;;4.53;1.30;;;23.60;92.20;;;;;;5137583;27;20114;-68
2022/08/27 10:42:31;;;;;;;4.07;1.25;;;23.50;92.40;;;;;;5120288;27;20050;-67
2022/08/27 10:45:38;;;;;;;4.22;1.10;;;23.40;92.40;;;;;;5137776;27;20109;-69
2022/08/27 10:48:23;;;;;;;7.75;1.27;;;23.20;92.80;;;;;;5140343;27;20115;-69
2022/08/27 10:50:56;;;;;;;3.97;0.98;;;23.40;92.80;;;;;;5132730;27;20122;-70
2022/08/27 10:53:31;;;;;;;4.75;1.23;;;23.50;92.90;;;;;;5136055;27;20478;-70
2022/08/27 10:56:20;;;;;;;4.22;1.00;;;23.50;92.60;;;;;;5135108;27;20047;-73
2022/08/27 10:58:55;;;;;;;4.18;1.20;;;23.40;92.80;;;;;;5099516;27;20087;-70
2022/08/27 11:01:39;;;;;;;5.00;1.20;;;23.20;93.00;;;;;;5113246;27;20035;-72
2022/08/27 11:04:27;;;;;;;3.92;1.35;;;23.20;93.00;;;;;;5134647;27;20031;-77
2022/08/27 11:07:05;;;;;;;3.72;0.95;;;23.40;94.10;;;;;;5139782;27;20058;-74
2022/08/27 11:09:55;;;;;;;3.78;1.05;;;24.60;92.90;;;;;;5124504;27;20047;-77
2022/08/27 11:12:35;;;;;;;6.55;1.20;;;24.40;91.70;;;;;;5117404;27;20487;-70
2022/08/27 11:15:15;;;;;;;5.65;0.95;;;24.20;91.90;;;;;;5132260;27;20394;-72
2022/08/27 11:17:50;;;;;;;3.65;0.95;;;24.50;91.70;;;;;;5131063;27;20039;-74
2022/08/27 11:20:37;;;;;;;5.00;1.10;;;24.60;91.20;;;;;;5132700;27;20043;-74
2022/08/27 11:23:13;;;;;;;5.30;1.00;;;25.00;91.50;;;;;;5130381;27;20499;-71
2022/08/27 11:25:50;;;;;;;3.67;0.98;;;25.90;90.50;;;;;;5114887;27;21081;-68
2022/08/27 11:28:20;;;;;;;3.30;1.08;;;26.80;90.00;;;;;;5130863;27;20085;-67
2022/08/27 11:31:15;;;;;;;4.15;1.08;;;27.30;87.60;;;;;;5109525;27;20055;-68
2022/08/27 11:34:12;;;;;;;2.60;0.90;;;26.70;87.00;;;;;;5131561;27;20122;-70
2022/08/27 11:36:44;;;;;;;3.88;1.00;;;26.00;87.20;;;;;;5133966;27;20042;-70
2022/08/27 11:39:47;;;;;;;5.53;1.30;;;25.70;88.60;;;;;;5115049;27;20203;-79
2022/08/27 11:42:19;;;;;;;2.88;1.27;;;26.40;88.50;;;;;;5131387;27;20382;-70
2022/08/27 11:44:50;;;;;;;2.65;1.08;;;27.30;88.60;;;;;;5133908;27;20366;-70
2022/08/27 11:47:23;;;;;;;3.47;1.02;;;27.90;86.50;;;;;;5115939;27;20654;-70
2022/08/27 11:50:07;;;;;;;3.75;1.13;;;28.50;86.20;;;;;;5118104;27;20063;-71
2022/08/27 11:52:52;;;;;;;3.45;1.20;;;29.00;83.40;;;;;;5120543;27;20046;-76
2022/08/27 11:55:20;;;;;;;4.57;1.15;;;29.30;82.40;;;;;;5117075;27;20047;-77
2022/08/27 11:58:16;;;;;;;2.80;1.20;;;29.60;80.60;;;;;;5125821;27;20039;-70
2022/08/27 12:00:44;;;;;;;3.47;1.10;;;29.20;81.60;;;;;;5121542;27;20054;-70
2022/08/27 12:03:22;;;;;;;8.82;1.40;;;29.20;80.30;;;;;;5131947;27;20046;-70
2022/08/27 12:06:02;;;;;;;3.05;0.90;;;29.30;81.20;;;;;;5117720;28;20512;-69
2022/08/27 12:08:31;;;;;;;2.72;1.00;;;29.60;81.50;;;;;;5141372;27;20513;-70
2022/08/27 12:11:23;;;;;;;4.03;1.13;;;29.70;79.20;;;;;;5141437;27;20490;-69
2022/08/27 12:14:11;;;;;;;3.53;1.10;;;29.50;81.60;;;;;;5118646;28;20076;-69
2022/08/27 12:16:53;;;;;;;4.28;1.17;;;28.80;79.50;;;;;;5136365;27;20039;-70
2022/08/27 12:19:40;;;;;;;2.70;1.10;;;28.40;79.00;;;;;;5136859;27;20043;-70
2022/08/27 12:22:18;;;;;;;2.53;1.00;;;28.60;79.60;;;;;;5133561;27;20043;-70
2022/08/27 12:24:53;;;;;;;4.10;1.67;;;29.10;81.00;;;;;;5119797;27;20063;-69
2022/08/27 12:27:25;;;;;;;6.03;1.63;;;28.70;82.30;;;;;;5121756;27;20340;-69
2022/08/27 12:30:03;;;;;;;4.63;1.70;;;28.00;82.50;;;;;;5123860;27;20039;-70
2022/08/27 12:32:43;;;;;;;6.00;1.98;;;27.00;83.20;;;;;;5105159;27;20035;-70
2022/08/27 12:35:23;;;;;;;5.15;1.90;;;26.40;84.80;;;;;;5118378;27;20042;-69
2022/08/27 12:38:13;;;;;;;4.25;1.77;;;26.30;86.70;;;;;;5125051;27;20521;-69
2022/08/27 12:40:50;;;;;;;6.40;2.00;;;25.90;85.40;;;;;;5144206;27;20038;-69
2022/08/27 12:43:27;;;;;;;5.03;1.63;;;25.90;86.20;;;;;;5144851;27;20514;-69
2022/08/27 12:46:12;;;;;;;4.43;1.88;;;26.30;86.70;;;;;;5144772;27;20042;-70
2022/08/27 12:48:50;;;;;;;4.35;1.80;;;26.00;86.40;;;;;;5140779;27;20051;-69
2022/08/27 12:51:30;;;;;;;4.97;1.88;;;26.00;85.30;;;;;;5146594;27;20051;-69
2022/08/27 12:54:07;;;;;;;7.32;1.88;;;26.40;86.10;;;;;;5146982;27;20043;-70
2022/08/27 12:56:55;;;;;;;3.75;2.00;;;26.50;85.80;;;;;;5121609;27;20078;-69
2022/08/27 12:59:33;;;;;;;3.67;1.75;;;26.40;85.50;;;;;;5123340;27;20081;-69
2022/08/27 13:02:26;;;;;;;4.68;2.10;;;26.00;84.60;;;;;;5121508;27;20050;-69
2022/08/27 13:04:52;;;;;;;5.07;2.00;;;25.60;85.80;;;;;;5145655;27;20039;-69
2022/08/27 13:07:26;;;;;;;4.18;1.80;;;25.70;85.70;;;;;;5127373;27;20068;-69
2022/08/27 13:09:52;;;;;;;4.60;1.90;;;25.80;85.40;;;;;;5127373;27;20058;-69
2022/08/27 13:12:18;;;;;;;4.97;1.90;;;25.90;85.00;;;;;;5145460;27;20031;-69